Time;durP1;ratioP1;P1;durP2;ratioP2;P2;SDS_P1;SDS_P2;PMS_P1;PMS_P2;Temp;Humidity;BMP_temperature;BMP_pressure;BME280_temperature;BME280_humidity;BME280_pressure;Samples;Min_cycle;Max_cycle;Signal;HPM_P1;HPM_P2
2022/01/13 00:00:58;;;;;;;219.57;54.25;;;4.70;99.90;;;;;;5003919;28;20301;-74
2022/01/13 00:03:24;;;;;;;170.65;49.70;;;4.60;99.90;;;;;;5007393;28;20056;-73
2022/01/13 00:05:49;;;;;;;255.45;54.92;;;4.60;99.90;;;;;;5010220;28;20140;-73
2022/01/13 00:08:15;;;;;;;272.52;56.50;;;4.70;99.90;;;;;;5007539;28;20100;-74
2022/01/13 00:10:41;;;;;;;239.38;53.55;;;4.60;99.90;;;;;;5007807;28;20046;-73
2022/01/13 00:13:09;;;;;;;202.23;54.83;;;4.60;99.90;;;;;;5015856;28;20465;-74
2022/01/13 00:15:47;;;;;;;;;;;4.60;99.90;;;;;;5013121;28;20084;-74
2022/01/13 00:18:19;;;;;;;250.13;54.70;;;4.60;99.90;;;;;;5007749;28;20428;-74
2022/01/13 00:23:45;;;;;;;240.52;53.63;;;4.50;99.90;;;;;;5008122;28;20057;-74
2022/01/13 00:26:18;;;;;;;233.32;56.05;;;4.60;99.90;;;;;;5008816;28;20485;-75
2022/01/13 00:28:45;;;;;;;196.07;54.40;;;4.60;99.90;;;;;;5005104;28;20056;-73
2022/01/13 00:31:11;;;;;;;411.73;61.15;;;4.60;99.90;;;;;;5007041;28;20092;-73
2022/01/13 00:33:43;;;;;;;310.30;56.80;;;4.60;99.90;;;;;;5006297;28;20602;-73
2022/01/13 00:36:09;;;;;;;261.60;54.30;;;4.60;99.90;;;;;;5009044;28;20168;-73
2022/01/13 00:38:34;;;;;;;361.77;58.88;;;4.60;99.90;;;;;;5008612;28;20128;-74
2022/01/13 00:41:00;;;;;;;241.25;53.88;;;4.60;99.90;;;;;;5011940;28;20037;-73
2022/01/13 00:43:25;;;;;;;244.70;51.65;;;4.60;99.90;;;;;;5008413;28;20077;-75
2022/01/13 00:45:51;;;;;;;251.52;53.55;;;4.60;99.90;;;;;;5006256;28;20057;-74
2022/01/13 00:48:17;;;;;;;322.90;54.05;;;4.60;99.90;;;;;;5009229;28;20041;-74
2022/01/13 00:50:43;;;;;;;254.15;51.08;;;4.60;99.90;;;;;;5007487;28;20093;-73
2022/01/13 00:53:08;;;;;;;222.02;52.35;;;4.60;99.90;;;;;;5008958;28;20109;-74
2022/01/13 00:55:58;;;;;;;198.48;51.70;;;4.60;99.90;;;;;;5010358;28;20119;-74
2022/01/13 00:58:27;;;;;;;208.65;52.30;;;4.60;99.90;;;;;;5008507;28;20405;-74
2022/01/13 01:00:53;;;;;;;163.57;47.90;;;4.60;99.90;;;;;;5011096;28;20054;-74
2022/01/13 01:03:20;;;;;;;202.60;50.25;;;4.60;99.90;;;;;;5006776;28;20145;-74
2022/01/13 01:05:46;;;;;;;186.50;49.85;;;4.60;99.90;;;;;;5009917;28;20077;-73
2022/01/13 01:08:12;;;;;;;328.33;51.75;;;4.60;99.90;;;;;;5010187;28;20497;-74
2022/01/13 01:10:39;;;;;;;382.90;53.58;;;4.70;99.90;;;;;;5006613;28;20115;-73
2022/01/13 01:13:14;;;;;;;260.83;48.50;;;4.60;99.90;;;;;;5004505;28;20046;-73
2022/01/13 01:15:44;;;;;;;161.38;46.90;;;4.60;99.90;;;;;;4997475;28;20332;-75
2022/01/13 01:18:25;;;;;;;303.48;52.70;;;4.70;99.90;;;;;;5007282;28;20468;-73
2022/01/13 01:23:36;;;;;;;271.48;51.50;;;4.60;99.90;;;;;;4994509;28;20058;-73
2022/01/13 01:26:22;;;;;;;368.67;54.10;;;4.60;99.90;;;;;;4994270;28;20048;-76
2022/01/13 01:28:58;;;;;;;187.88;50.40;;;4.60;99.90;;;;;;5009321;28;20128;-74
2022/01/13 01:31:30;;;;;;;428.05;55.30;;;4.60;99.90;;;;;;5019974;28;20084;-74
2022/01/13 01:36:37;;;;;;;216.63;48.85;;;4.60;99.90;;;;;;5003021;28;20568;-74
2022/01/13 01:39:05;;;;;;;209.68;49.28;;;4.70;99.90;;;;;;5005094;28;20145;-74
2022/01/13 01:41:35;;;;;;;392.83;54.80;;;4.70;99.90;;;;;;5007482;28;20046;-73
2022/01/13 01:44:14;;;;;;;273.23;50.88;;;4.70;99.90;;;;;;5008396;28;20050;-74
2022/01/13 01:46:44;;;;;;;261.77;48.60;;;4.70;99.90;;;;;;5006338;28;20080;-74
2022/01/13 01:49:37;;;;;;;444.45;55.88;;;4.70;99.90;;;;;;5007411;28;20049;-74
2022/01/13 01:52:01;;;;;;;500.30;57.50;;;4.70;99.90;;;;;;5007279;28;20540;-74
2022/01/13 01:54:28;;;;;;;392.30;55.33;;;4.60;99.90;;;;;;5006765;28;20057;-74
2022/01/13 01:56:54;;;;;;;374.05;53.30;;;4.60;99.90;;;;;;5005427;28;20316;-73
2022/01/13 01:59:24;;;;;;;318.02;51.63;;;4.60;99.90;;;;;;5004519;28;20064;-75
2022/01/13 02:01:51;;;;;;;464.80;59.38;;;4.70;99.90;;;;;;5003231;28;20058;-74
2022/01/13 02:04:18;;;;;;;435.13;54.07;;;4.70;99.90;;;;;;5006622;28;20050;-74
2022/01/13 02:06:44;;;;;;;465.25;56.13;;;4.70;99.90;;;;;;5005888;28;20046;-74
2022/01/13 02:09:12;;;;;;;275.55;49.45;;;4.70;99.90;;;;;;5001339;28;20494;-73
2022/01/13 02:11:45;;;;;;;316.42;51.05;;;4.70;99.90;;;;;;5010042;28;20137;-73
2022/01/13 02:16:51;;;;;;;326.88;50.88;;;4.70;99.90;;;;;;5007514;28;20726;-74
2022/01/13 02:19:17;;;;;;;234.30;48.17;;;4.70;99.90;;;;;;5006777;28;20061;-73
2022/01/13 02:21:43;;;;;;;393.63;52.03;;;4.70;99.90;;;;;;5006979;28;20128;-73
2022/01/13 02:24:09;;;;;;;308.83;51.00;;;4.70;99.90;;;;;;5006341;28;20145;-72
2022/01/13 02:26:35;;;;;;;197.10;46.85;;;4.70;99.90;;;;;;5012360;28;20096;-73
2022/01/13 02:29:00;;;;;;;418.08;54.38;;;4.70;99.90;;;;;;5009532;28;20045;-74
2022/01/13 02:31:27;;;;;;;224.48;49.03;;;4.70;99.90;;;;;;5006234;28;20561;-73
2022/01/13 02:33:53;;;;;;;360.27;51.85;;;4.80;99.90;;;;;;5006705;28;20034;-74
2022/01/13 02:36:22;;;;;;;200.00;45.90;;;4.80;99.90;;;;;;5005707;28;20064;-74
2022/01/13 02:38:53;;;;;;;522.92;54.78;;;4.80;99.90;;;;;;5010568;28;20084;-74
2022/01/13 02:41:22;;;;;;;341.98;49.58;;;4.80;99.90;;;;;;5006939;28;20062;-73
2022/01/13 02:43:48;;;;;;;217.68;44.33;;;4.80;99.90;;;;;;5005955;28;20821;-74
2022/01/13 02:49:07;;;;;;;337.25;48.70;;;4.80;99.90;;;;;;5002896;28;20049;-73
2022/01/13 02:51:33;;;;;;;279.30;47.22;;;4.80;99.90;;;;;;5007293;28;20037;-74
2022/01/13 02:53:59;;;;;;;270.50;45.97;;;4.80;99.90;;;;;;5006181;28;20049;-74
2022/01/13 02:56:26;;;;;;;261.98;46.60;;;4.80;99.90;;;;;;5005414;28;20041;-74
2022/01/13 02:58:51;;;;;;;210.38;45.80;;;4.80;99.90;;;;;;5012187;28;20044;-73
2022/01/13 03:01:17;;;;;;;272.67;45.78;;;4.80;99.90;;;;;;5006277;28;20045;-73
2022/01/13 03:03:44;;;;;;;224.30;45.53;;;4.90;99.90;;;;;;5007896;28;20053;-74
2022/01/13 03:06:24;;;;;;;222.45;44.42;;;4.90;99.90;;;;;;5011544;28;20049;-74
2022/01/13 03:08:51;;;;;;;191.80;45.13;;;4.90;99.90;;;;;;5009096;28;20050;-74
2022/01/13 03:11:18;;;;;;;199.73;43.38;;;4.90;99.90;;;;;;5008490;28;20065;-73
2022/01/13 03:13:43;;;;;;;278.95;45.60;;;4.90;99.90;;;;;;5009140;28;20080;-74
2022/01/13 03:16:12;;;;;;;310.98;49.05;;;4.80;99.90;;;;;;5008545;28;20049;-74
2022/01/13 03:18:38;;;;;;;272.23;47.45;;;4.80;99.90;;;;;;5010960;28;20064;-75
2022/01/13 03:21:05;;;;;;;215.85;44.90;;;4.90;99.90;;;;;;5010315;28;20049;-74
2022/01/13 03:23:34;;;;;;;222.90;46.80;;;4.80;99.90;;;;;;5013889;28;20141;-74
2022/01/13 03:25:59;;;;;;;226.40;46.05;;;4.80;99.90;;;;;;5010644;28;20050;-74
2022/01/13 03:28:38;;;;;;;214.68;45.25;;;4.80;99.90;;;;;;5011490;28;20093;-72
2022/01/13 03:31:06;;;;;;;216.07;47.13;;;4.80;99.90;;;;;;5010055;28;20128;-74
2022/01/13 03:33:33;;;;;;;182.70;45.05;;;4.80;99.90;;;;;;5010032;28;20042;-74
2022/01/13 03:35:59;;;;;;;170.98;43.67;;;4.80;99.90;;;;;;5010430;28;20059;-74
2022/01/13 03:38:26;;;;;;;172.33;44.30;;;4.80;99.90;;;;;;5020912;28;20073;-73
2022/01/13 03:40:52;;;;;;;166.90;42.47;;;4.80;99.90;;;;;;5010801;28;20895;-74
2022/01/13 03:43:18;;;;;;;261.45;47.28;;;4.90;99.90;;;;;;5013143;28;20052;-73
2022/01/13 03:45:45;;;;;;;223.57;45.05;;;4.90;99.90;;;;;;5008323;28;20650;-74
2022/01/13 03:48:13;;;;;;;202.82;42.97;;;4.80;99.90;;;;;;5006007;28;20054;-74
2022/01/13 03:50:39;;;;;;;;;;;4.80;99.90;;;;;;5007263;28;20128;-74
2022/01/13 03:53:26;;;;;;;181.93;44.40;;;4.80;99.90;;;;;;5010781;28;19921;-74
2022/01/13 03:56:42;;;;;;;336.83;47.92;;;4.80;99.90;;;;;;5009174;28;20058;-73
2022/01/13 03:59:31;;;;;;;256.50;44.65;;;4.80;99.90;;;;;;4950470;28;20042;-74
2022/01/13 04:02:05;;;;;;;229.27;44.53;;;4.80;99.90;;;;;;5007369;28;20061;-74
2022/01/13 04:04:50;;;;;;;188.45;41.90;;;4.80;99.90;;;;;;5012991;28;20489;-74
2022/01/13 04:07:22;;;;;;;246.80;45.60;;;4.80;99.90;;;;;;5014466;28;20128;-74
2022/01/13 04:09:47;;;;;;;164.90;41.20;;;4.80;99.90;;;;;;5015125;28;20100;-74
2022/01/13 04:12:14;;;;;;;202.07;41.35;;;4.80;99.90;;;;;;5010063;28;20050;-73
2022/01/13 04:17:08;;;;;;;261.45;41.50;;;4.80;99.90;;;;;;5001220;28;20057;-74
2022/01/13 04:19:33;;;;;;;201.27;39.63;;;4.80;99.90;;;;;;5003441;28;20604;-75
2022/01/13 04:21:59;;;;;;;326.45;43.45;;;4.80;99.90;;;;;;5006643;28;20050;-74
2022/01/13 04:24:25;;;;;;;184.52;38.20;;;4.80;99.90;;;;;;5008079;28;20096;-74
2022/01/13 04:26:53;;;;;;;189.30;38.00;;;4.80;99.90;;;;;;5012392;28;20057;-74
2022/01/13 04:29:27;;;;;;;230.65;39.30;;;4.80;99.90;;;;;;5008527;28;20085;-74
2022/01/13 04:31:54;;;;;;;237.88;41.35;;;4.90;99.90;;;;;;5007242;28;20112;-73
2022/01/13 04:34:19;;;;;;;226.00;42.13;;;4.80;99.90;;;;;;5007360;28;20149;-73
2022/01/13 04:36:46;;;;;;;187.10;44.03;;;4.90;99.90;;;;;;5010651;28;20128;-74
2022/01/13 04:39:14;;;;;;;184.75;42.70;;;4.90;99.90;;;;;;4999054;28;20053;-73
2022/01/13 04:41:43;;;;;;;220.77;41.25;;;4.90;99.90;;;;;;5006662;28;20053;-74
2022/01/13 04:44:11;;;;;;;161.98;34.97;;;4.90;99.90;;;;;;5003851;28;20057;-74
2022/01/13 04:46:37;;;;;;;;;;;4.90;99.90;;;;;;5008355;28;20042;-74
2022/01/13 04:49:04;;;;;;;169.63;35.65;;;4.90;99.90;;;;;;5003347;28;19929;-74
2022/01/13 04:51:30;;;;;;;198.15;39.25;;;4.80;99.90;;;;;;5008856;28;20050;-74
2022/01/13 04:53:56;;;;;;;311.10;48.33;;;4.80;99.90;;;;;;5006597;28;20054;-74
2022/01/13 04:58:57;;;;;;;248.25;44.97;;;4.80;99.90;;;;;;5011226;28;20373;-73
2022/01/13 05:01:23;;;;;;;146.02;40.72;;;4.80;99.90;;;;;;5006636;28;20554;-72
2022/01/13 05:03:49;;;;;;;150.48;40.42;;;4.80;99.90;;;;;;5009330;28;20053;-74
2022/01/13 05:06:18;;;;;;;175.85;42.47;;;4.80;99.90;;;;;;5011270;28;20038;-73
2022/01/13 05:08:48;;;;;;;145.43;41.40;;;4.80;99.90;;;;;;5007623;28;20053;-73
2022/01/13 05:11:15;;;;;;;297.13;45.70;;;4.80;99.90;;;;;;5005963;28;20050;-74
2022/01/13 05:13:41;;;;;;;;;;;4.80;99.90;;;;;;5009610;28;20503;-74
2022/01/13 05:16:14;;;;;;;255.60;42.00;;;4.80;99.90;;;;;;5008138;28;19968;-74
2022/01/13 05:18:55;;;;;;;203.70;42.63;;;4.80;99.90;;;;;;5003742;28;20128;-73
2022/01/13 05:23:52;;;;;;;258.52;44.33;;;4.80;99.90;;;;;;5010912;28;20133;-73
2022/01/13 05:26:21;;;;;;;208.18;42.38;;;4.80;99.90;;;;;;5017198;28;20045;-74
2022/01/13 05:28:46;;;;;;;286.50;43.90;;;4.70;99.90;;;;;;5007779;28;20195;-74
2022/01/13 05:31:12;;;;;;;291.05;45.42;;;4.70;99.90;;;;;;5006735;28;20136;-74
2022/01/13 05:33:38;;;;;;;211.65;40.55;;;4.70;99.90;;;;;;5007411;28;20045;-73
2022/01/13 05:36:04;;;;;;;352.10;46.70;;;4.70;99.90;;;;;;5008790;28;20052;-73
2022/01/13 05:38:30;;;;;;;209.13;40.88;;;4.70;99.90;;;;;;5001752;28;20093;-73
2022/01/13 05:40:58;;;;;;;165.20;39.58;;;4.70;99.90;;;;;;5004635;28;20505;-74
2022/01/13 05:43:26;;;;;;;266.67;45.50;;;4.70;99.90;;;;;;5008709;28;20127;-74
2022/01/13 05:45:52;;;;;;;201.95;42.60;;;4.70;99.90;;;;;;5008741;28;20057;-75
2022/01/13 05:48:18;;;;;;;248.32;41.80;;;4.70;99.90;;;;;;5008703;28;20469;-74
2022/01/13 05:50:43;;;;;;;230.23;42.58;;;4.70;99.90;;;;;;5006321;28;20057;-74
2022/01/13 05:53:09;;;;;;;322.45;46.88;;;4.70;99.90;;;;;;5005555;28;20513;-74
2022/01/13 05:55:35;;;;;;;153.80;39.92;;;4.60;99.90;;;;;;5008888;28;20457;-74
2022/01/13 05:58:02;;;;;;;183.75;41.88;;;4.60;99.90;;;;;;5006737;28;20034;-73
2022/01/13 06:00:28;;;;;;;218.43;43.13;;;4.60;99.90;;;;;;5006721;28;20050;-74
2022/01/13 06:02:54;;;;;;;263.17;45.47;;;4.60;99.90;;;;;;5008045;28;20038;-73
2022/01/13 06:05:21;;;;;;;204.95;42.95;;;4.60;99.90;;;;;;5019789;28;20477;-73
2022/01/13 06:07:47;;;;;;;228.03;40.97;;;4.60;99.90;;;;;;5005305;28;20549;-74
2022/01/13 06:10:18;;;;;;;357.77;46.63;;;4.60;99.90;;;;;;5008674;28;20041;-75
2022/01/13 06:12:48;;;;;;;275.33;44.47;;;4.60;99.90;;;;;;4999960;28;20054;-73
2022/01/13 06:15:15;;;;;;;314.25;43.65;;;4.60;99.90;;;;;;5008972;28;20127;-73
2022/01/13 06:17:42;;;;;;;168.55;41.20;;;4.60;99.90;;;;;;5007807;28;20069;-73
2022/01/13 06:20:10;;;;;;;292.63;44.70;;;4.60;99.90;;;;;;5004386;28;20042;-73
2022/01/13 06:22:37;;;;;;;209.32;39.53;;;4.60;99.90;;;;;;5005902;28;20309;-73
2022/01/13 06:25:05;;;;;;;215.52;40.97;;;4.60;99.90;;;;;;5007599;28;20116;-74
2022/01/13 06:27:31;;;;;;;323.13;44.92;;;4.60;99.90;;;;;;5008951;28;20045;-73
2022/01/13 06:29:57;;;;;;;274.05;43.03;;;4.60;99.90;;;;;;5006492;28;20076;-73
2022/01/13 06:32:23;;;;;;;264.80;44.03;;;4.60;99.90;;;;;;5007586;28;20046;-74
2022/01/13 06:34:50;;;;;;;257.45;44.70;;;4.60;99.90;;;;;;5008352;28;20141;-74
2022/01/13 06:37:16;;;;;;;253.98;45.22;;;4.60;99.90;;;;;;5006631;28;20073;-73
2022/01/13 06:39:42;;;;;;;257.95;45.10;;;4.60;99.90;;;;;;5005857;28;20049;-74
2022/01/13 06:42:08;;;;;;;227.98;43.13;;;4.60;99.90;;;;;;5004294;28;20038;-74
2022/01/13 06:44:35;;;;;;;180.55;40.22;;;4.60;99.90;;;;;;5012296;28;20493;-74
2022/01/13 06:47:00;;;;;;;161.25;39.00;;;4.60;99.90;;;;;;5006206;28;20092;-73
2022/01/13 06:49:26;;;;;;;161.77;37.92;;;4.60;99.90;;;;;;5010315;28;20054;-74
2022/01/13 06:51:51;;;;;;;197.48;39.97;;;4.70;99.90;;;;;;5010798;28;20399;-74
2022/01/13 06:54:17;;;;;;;253.80;46.35;;;4.70;99.90;;;;;;5008618;28;20049;-74
2022/01/13 06:56:43;;;;;;;253.10;45.00;;;4.70;99.90;;;;;;5007229;28;20053;-74
2022/01/13 06:59:11;;;;;;;311.38;46.05;;;4.70;99.90;;;;;;5012562;28;20037;-74
2022/01/13 07:01:40;;;;;;;334.65;46.75;;;4.70;99.90;;;;;;5009303;28;20489;-74
2022/01/13 07:04:09;;;;;;;314.42;46.90;;;4.70;99.90;;;;;;5018988;28;20072;-74
2022/01/13 07:06:35;;;;;;;229.25;44.20;;;4.70;99.90;;;;;;5007508;28;20045;-74
2022/01/13 07:09:05;;;;;;;345.48;47.95;;;4.70;99.90;;;;;;5013635;28;20034;-74
2022/01/13 07:11:30;;;;;;;170.32;40.97;;;4.60;99.90;;;;;;5009933;28;20050;-73
2022/01/13 07:13:56;;;;;;;183.50;40.25;;;4.60;99.90;;;;;;5015444;28;20125;-74
2022/01/13 07:16:22;;;;;;;231.85;43.40;;;4.60;99.90;;;;;;5003682;28;20579;-73
2022/01/13 07:18:48;;;;;;;306.67;44.88;;;4.70;99.90;;;;;;5008939;28;20470;-74
2022/01/13 07:21:16;;;;;;;347.35;47.05;;;4.60;99.90;;;;;;5007204;28;20108;-74
2022/01/13 07:23:43;;;;;;;169.43;40.40;;;4.70;99.90;;;;;;5008451;28;20049;-74
2022/01/13 07:26:09;;;;;;;214.50;43.33;;;4.60;99.90;;;;;;4999947;28;20050;-74
2022/01/13 07:28:35;;;;;;;321.17;47.83;;;4.70;99.90;;;;;;5008179;28;20061;-74
2022/01/13 07:31:00;;;;;;;247.93;45.47;;;4.60;99.90;;;;;;5012994;28;20088;-74
2022/01/13 07:33:27;;;;;;;250.82;44.72;;;4.70;99.90;;;;;;5009771;28;20386;-73
2022/01/13 07:35:54;;;;;;;210.27;41.63;;;4.60;99.90;;;;;;5008640;28;20044;-74
2022/01/13 07:38:19;;;;;;;169.35;39.75;;;4.60;99.90;;;;;;5009325;28;20046;-74
2022/01/13 07:40:45;;;;;;;155.50;38.20;;;4.60;99.90;;;;;;5008436;28;20053;-74
2022/01/13 07:43:10;;;;;;;172.10;37.63;;;4.60;99.90;;;;;;5006776;28;20041;-74
2022/01/13 07:45:36;;;;;;;169.95;38.25;;;4.60;99.90;;;;;;5007264;28;20048;-74
2022/01/13 07:48:02;;;;;;;134.23;34.45;;;4.60;99.90;;;;;;5010769;28;20038;-74
2022/01/13 07:50:27;;;;;;;135.30;35.25;;;4.60;99.90;;;;;;5011203;28;20045;-74
2022/01/13 07:52:53;;;;;;;157.30;38.00;;;4.70;99.90;;;;;;5013160;28;20672;-74
2022/01/13 07:55:19;;;;;;;148.05;36.53;;;4.70;99.90;;;;;;5006861;28;20405;-74
2022/01/13 07:57:44;;;;;;;144.05;36.20;;;4.70;99.90;;;;;;5009323;28;20038;-74
2022/01/13 08:00:12;;;;;;;137.00;36.08;;;4.70;99.90;;;;;;5009576;28;20064;-74
2022/01/13 08:02:38;;;;;;;;;;;4.70;99.90;;;;;;5009448;28;20401;-74
2022/01/13 08:05:04;;;;;;;182.40;37.33;;;4.70;99.90;;;;;;5020431;28;19921;-74
2022/01/13 08:07:30;;;;;;;152.23;36.22;;;4.70;99.90;;;;;;5009913;28;20743;-74
2022/01/13 08:09:55;;;;;;;111.75;31.67;;;4.70;99.90;;;;;;5009761;28;20084;-74
2022/01/13 08:12:21;;;;;;;164.63;36.80;;;4.70;99.90;;;;;;5004553;28;20080;-74
2022/01/13 08:14:48;;;;;;;139.43;34.22;;;4.70;99.90;;;;;;5011943;28;20042;-73
2022/01/13 08:19:45;;;;;;;153.82;34.30;;;4.70;99.90;;;;;;5008465;28;20491;-74
2022/01/13 08:19:59;;;;;;;126.10;31.45;;;4.70;99.90;;;;;;5006240;28;20061;-75
2022/01/13 08:22:25;;;;;;;147.90;34.72;;;4.70;99.90;;;;;;5014636;28;20033;-71
2022/01/13 08:24:50;;;;;;;129.65;33.83;;;4.70;99.90;;;;;;5011193;28;20129;-73
2022/01/13 08:27:16;;;;;;;134.32;34.08;;;4.70;99.90;;;;;;5008402;28;20077;-71
2022/01/13 08:29:41;;;;;;;114.60;31.45;;;4.80;99.90;;;;;;5011422;28;20038;-72
2022/01/13 08:32:07;;;;;;;172.52;34.50;;;4.80;99.90;;;;;;5010054;28;20034;-72
2022/01/13 08:34:33;;;;;;;140.52;34.42;;;4.80;99.90;;;;;;5007636;28;20057;-71
2022/01/13 08:36:59;;;;;;;127.55;32.95;;;4.80;99.90;;;;;;5009433;28;20412;-71
2022/01/13 08:39:24;;;;;;;123.13;33.08;;;4.80;99.90;;;;;;5009031;28;20046;-71
2022/01/13 08:41:50;;;;;;;144.07;34.13;;;4.80;99.90;;;;;;5007798;28;20080;-73
2022/01/13 08:44:16;;;;;;;147.15;33.92;;;4.80;99.90;;;;;;5008898;28;20041;-72
2022/01/13 08:46:42;;;;;;;103.15;30.30;;;4.80;99.90;;;;;;5008635;28;20053;-72
2022/01/13 08:49:09;;;;;;;170.48;36.30;;;4.80;99.90;;;;;;5008401;28;20137;-70
2022/01/13 08:51:35;;;;;;;155.05;34.00;;;4.90;99.90;;;;;;4989769;28;20050;-70
2022/01/13 08:54:01;;;;;;;127.95;33.08;;;4.90;99.90;;;;;;5008271;28;20488;-70
2022/01/13 08:56:27;;;;;;;161.25;35.13;;;4.90;99.90;;;;;;5007203;28;20054;-71
2022/01/13 08:58:52;;;;;;;131.57;33.20;;;4.90;99.90;;;;;;5015403;28;20485;-74
2022/01/13 09:01:18;;;;;;;133.40;34.65;;;4.90;99.90;;;;;;5008538;28;20068;-77
2022/01/13 09:03:44;;;;;;;107.35;32.10;;;5.00;99.90;;;;;;5007451;28;20045;-74
2022/01/13 09:06:09;;;;;;;108.00;32.75;;;5.00;99.90;;;;;;5009606;28;20061;-74
2022/01/13 09:08:35;;;;;;;126.30;34.90;;;5.00;99.90;;;;;;5008585;28;20038;-74
2022/01/13 09:11:01;;;;;;;115.18;33.22;;;5.00;99.90;;;;;;5009386;28;20054;-74
2022/01/13 09:13:27;;;;;;;96.50;30.45;;;5.10;99.90;;;;;;5008962;28;20045;-74
2022/01/13 09:15:58;;;;;;;119.40;32.25;;;5.10;99.90;;;;;;5006348;28;20048;-72
2022/01/13 09:18:59;;;;;;;122.07;33.08;;;5.00;99.90;;;;;;5009483;28;20085;-71
2022/01/13 09:21:27;;;;;;;88.43;33.22;;;5.00;99.90;;;;;;5006745;28;20137;-71
2022/01/13 09:23:54;;;;;;;142.30;36.00;;;5.00;99.90;;;;;;5007599;28;20041;-71
2022/01/13 09:26:19;;;;;;;104.95;32.22;;;5.00;99.90;;;;;;5007564;28;20065;-71
2022/01/13 09:28:45;;;;;;;89.50;32.22;;;5.00;99.90;;;;;;5007057;28;20042;-71
2022/01/13 09:31:11;;;;;;;116.75;33.25;;;5.00;99.90;;;;;;5007721;28;20045;-71
2022/01/13 09:33:36;;;;;;;108.25;31.85;;;5.10;99.90;;;;;;5007726;28;20477;-71
2022/01/13 09:36:04;;;;;;;119.53;33.08;;;5.10;99.90;;;;;;5006386;28;20133;-71
2022/01/13 09:38:30;;;;;;;113.88;34.20;;;5.10;99.90;;;;;;5008574;28;20080;-71
2022/01/13 09:40:56;;;;;;;136.60;34.70;;;5.10;99.90;;;;;;5010524;28;20129;-70
2022/01/13 09:43:26;;;;;;;118.97;35.53;;;5.10;99.90;;;;;;5009128;28;20401;-70
2022/01/13 09:45:53;;;;;;;119.22;34.58;;;5.10;99.90;;;;;;5006696;28;20481;-71
2022/01/13 09:48:19;;;;;;;106.47;34.05;;;5.10;99.90;;;;;;5020481;28;20452;-70
2022/01/13 09:50:46;;;;;;;112.68;35.22;;;5.10;99.90;;;;;;5027865;28;20045;-71
2022/01/13 09:53:13;;;;;;;104.85;34.63;;;5.10;99.90;;;;;;5009739;28;20068;-71
2022/01/13 09:55:44;;;;;;;96.32;32.75;;;5.10;99.90;;;;;;5007670;28;20054;-71
2022/01/13 09:58:10;;;;;;;111.50;33.20;;;5.00;99.90;;;;;;5006999;28;20049;-71
2022/01/13 10:00:41;;;;;;;107.85;33.70;;;5.10;99.90;;;;;;5009950;28;20434;-73
2022/01/13 10:03:16;;;;;;;110.03;34.47;;;5.10;99.90;;;;;;5007808;28;20041;-72
2022/01/13 10:05:52;;;;;;;99.20;34.33;;;5.10;99.90;;;;;;5005599;28;20041;-73
2022/01/13 10:08:40;;;;;;;113.03;34.90;;;5.10;99.90;;;;;;5008607;28;20062;-75
2022/01/13 10:11:24;;;;;;;119.03;33.15;;;5.10;99.90;;;;;;5007853;28;20056;-71
2022/01/13 10:14:11;;;;;;;121.97;35.35;;;5.10;99.90;;;;;;5013820;28;20484;-73
2022/01/13 10:16:47;;;;;;;106.82;32.63;;;5.10;99.90;;;;;;5013508;28;20076;-71
2022/01/13 10:19:36;;;;;;;122.15;33.50;;;5.20;99.90;;;;;;5010405;28;20064;-72
2022/01/13 10:22:14;;;;;;;117.95;32.97;;;5.20;99.90;;;;;;5010780;28;20046;-71
2022/01/13 10:24:42;;;;;;;123.32;33.35;;;5.20;99.90;;;;;;5000368;28;20061;-72
2022/01/13 10:27:22;;;;;;;119.57;33.88;;;5.20;99.90;;;;;;5011180;28;20386;-71
2022/01/13 10:29:52;;;;;;;116.00;33.70;;;5.20;99.90;;;;;;5011170;28;20583;-73
2022/01/13 10:32:20;;;;;;;122.47;34.08;;;5.20;99.90;;;;;;5010008;28;20050;-73
2022/01/13 10:34:48;;;;;;;151.32;36.42;;;5.20;99.90;;;;;;5011441;28;20205;-73
2022/01/13 10:37:28;;;;;;;111.03;33.47;;;5.20;99.90;;;;;;5012598;28;20052;-72
2022/01/13 10:40:11;;;;;;;127.20;33.70;;;5.20;99.90;;;;;;5012825;28;20056;-72
2022/01/13 10:43:06;;;;;;;148.77;35.42;;;5.30;99.90;;;;;;5010601;28;20042;-73
2022/01/13 10:45:37;;;;;;;128.43;34.40;;;5.20;99.90;;;;;;5006052;28;20085;-73
2022/01/13 10:48:06;;;;;;;123.03;33.72;;;5.30;99.90;;;;;;5008253;28;20483;-71
2022/01/13 10:50:47;;;;;;;130.02;35.05;;;5.30;99.90;;;;;;5001985;28;20400;-72
2022/01/13 10:53:19;;;;;;;102.45;33.55;;;5.30;99.90;;;;;;5009317;28;20127;-72
2022/01/13 10:55:51;;;;;;;103.88;32.72;;;5.30;99.90;;;;;;5002855;28;20547;-73
2022/01/13 10:58:23;;;;;;;130.70;35.55;;;5.30;99.90;;;;;;5010129;28;20061;-72
2022/01/13 11:00:51;;;;;;;104.03;33.58;;;5.30;99.90;;;;;;5008880;28;20188;-73
2022/01/13 11:03:18;;;;;;;125.90;33.88;;;5.30;99.90;;;;;;5009997;28;20077;-72
2022/01/13 11:05:52;;;;;;;;;;;5.30;99.90;;;;;;5010950;28;20072;-73
2022/01/13 11:08:44;;;;;;;123.50;34.08;;;5.30;99.90;;;;;;5014944;28;19922;-73
2022/01/13 11:11:19;;;;;;;123.20;36.00;;;5.30;99.90;;;;;;5007486;28;20074;-73
2022/01/13 11:13:54;;;;;;;128.82;35.70;;;5.30;99.90;;;;;;5009568;28;20054;-73
2022/01/13 11:16:21;;;;;;;120.70;35.58;;;5.30;99.90;;;;;;5009299;28;20065;-74
2022/01/13 11:18:47;;;;;;;99.10;31.73;;;5.30;99.90;;;;;;5008919;28;20062;-73
2022/01/13 11:21:13;;;;;;;113.43;32.80;;;5.30;99.90;;;;;;5010155;28;20052;-73
2022/01/13 11:23:41;;;;;;;142.48;35.30;;;5.30;99.90;;;;;;5009889;28;20532;-73
2022/01/13 11:26:08;;;;;;;102.53;35.15;;;5.30;99.90;;;;;;5011874;28;20042;-74
2022/01/13 11:28:36;;;;;;;110.45;35.55;;;5.30;99.90;;;;;;5012346;28;20045;-72
2022/01/13 11:31:02;;;;;;;100.82;32.30;;;5.30;99.90;;;;;;5011294;28;20052;-72
2022/01/13 11:33:28;;;;;;;97.95;30.88;;;5.40;99.90;;;;;;5010427;28;20045;-72
2022/01/13 11:35:57;;;;;;;105.03;33.83;;;5.40;99.90;;;;;;5011517;28;20108;-71
2022/01/13 11:38:25;;;;;;;100.18;30.90;;;5.30;99.90;;;;;;5010925;28;20070;-73
2022/01/13 11:40:53;;;;;;;93.35;31.50;;;5.30;99.90;;;;;;5011533;28;20081;-72
2022/01/13 11:43:29;;;;;;;94.38;32.28;;;5.30;99.90;;;;;;5025106;28;20057;-72
2022/01/13 11:45:55;;;;;;;110.50;33.30;;;5.30;99.90;;;;;;5008289;28;20046;-73
2022/01/13 11:48:26;;;;;;;94.20;33.33;;;5.30;99.90;;;;;;5007465;28;20140;-73
2022/01/13 11:51:14;;;;;;;108.70;33.05;;;5.30;99.90;;;;;;5000097;28;20405;-71
2022/01/13 11:53:59;;;;;;;92.55;33.40;;;5.30;99.90;;;;;;5008913;28;20045;-73
2022/01/13 11:56:27;;;;;;;84.45;31.50;;;5.30;99.90;;;;;;5009134;28;20054;-73
2022/01/13 11:58:53;;;;;;;106.05;33.65;;;5.30;99.90;;;;;;5007977;28;20049;-72
2022/01/13 12:01:27;;;;;;;107.00;32.13;;;5.30;99.90;;;;;;5010560;28;20484;-73
2022/01/13 12:04:17;;;;;;;107.72;34.42;;;5.30;99.90;;;;;;5010183;28;20037;-73
2022/01/13 12:06:50;;;;;;;110.32;34.88;;;5.30;99.90;;;;;;5008867;28;20093;-72
2022/01/13 12:09:22;;;;;;;111.60;34.15;;;5.30;99.90;;;;;;5009009;28;20077;-73
2022/01/13 12:11:54;;;;;;;115.47;33.58;;;5.30;99.90;;;;;;5008278;28;20049;-73
2022/01/13 12:14:29;;;;;;;117.63;33.88;;;5.30;99.90;;;;;;5008987;28;20049;-73
2022/01/13 12:17:03;;;;;;;109.60;33.25;;;5.30;99.90;;;;;;5008260;28;20442;-73
2022/01/13 12:19:36;;;;;;;106.00;33.65;;;5.30;99.90;;;;;;5009339;28;20120;-73
2022/01/13 12:22:10;;;;;;;98.43;34.70;;;5.30;99.90;;;;;;5009994;28;20050;-72
2022/01/13 12:24:55;;;;;;;96.32;33.85;;;5.30;99.90;;;;;;5006707;28;20038;-73
2022/01/13 12:27:24;;;;;;;100.28;34.80;;;5.30;99.90;;;;;;5009496;28;20045;-73
2022/01/13 12:30:06;;;;;;;98.78;34.10;;;5.30;99.90;;;;;;5007471;28;20054;-73
2022/01/13 12:32:56;;;;;;;105.53;36.33;;;5.30;99.90;;;;;;5007854;28;20046;-73
2022/01/13 12:35:22;;;;;;;98.60;35.20;;;5.30;99.90;;;;;;5007751;28;20049;-73
2022/01/13 12:38:03;;;;;;;117.38;36.58;;;5.40;99.90;;;;;;5007206;28;20038;-73
2022/01/13 12:40:34;;;;;;;99.53;35.00;;;5.40;99.90;;;;;;5006580;28;20606;-74
2022/01/13 12:43:12;;;;;;;81.88;32.75;;;5.40;99.90;;;;;;5008304;28;20416;-74
2022/01/13 12:45:39;;;;;;;96.78;34.28;;;5.40;99.90;;;;;;5002547;28;20226;-75
2022/01/13 12:48:09;;;;;;;90.93;33.75;;;5.40;99.90;;;;;;5005295;28;20054;-75
2022/01/13 12:50:42;;;;;;;96.95;35.15;;;5.50;99.90;;;;;;4989136;28;20058;-75
2022/01/13 12:53:16;;;;;;;97.80;34.88;;;5.50;99.90;;;;;;5003515;28;20049;-75
2022/01/13 12:55:54;;;;;;;104.43;36.22;;;5.50;99.90;;;;;;5007136;28;20053;-74
2022/01/13 12:58:22;;;;;;;81.25;32.95;;;5.50;99.90;;;;;;5011106;28;20490;-74
2022/01/13 13:00:48;;;;;;;84.05;32.97;;;5.50;99.90;;;;;;5006292;28;20050;-74
2022/01/13 13:03:14;;;;;;;95.03;33.75;;;5.50;99.90;;;;;;5009499;28;20111;-76